Time;durP1;ratioP1;P1;durP2;ratioP2;P2;SDS_P1;SDS_P2;PMS_P1;PMS_P2;Temp;Humidity;BMP_temperature;BMP_pressure;BME280_temperature;BME280_humidity;BME280_pressure;Samples;Min_cycle;Max_cycle;Signal;HPM_P1;HPM_P2
2021/03/08 00:00:00;;;;;;;10.87;7.83;;;3.80;99.90;;;;;;4946978;29;20405;-78
2021/03/08 00:02:26;;;;;;;6.53;5.87;;;3.80;99.90;;;;;;4946619;29;20403;-79
2021/03/08 00:04:52;;;;;;;9.53;7.20;;;3.80;99.90;;;;;;4946385;29;20471;-79
2021/03/08 00:07:18;;;;;;;9.43;6.00;;;3.70;99.90;;;;;;4946568;29;20404;-81
2021/03/08 00:09:44;;;;;;;13.10;8.20;;;3.70;99.90;;;;;;4946917;29;20164;-81
2021/03/08 00:12:10;;;;;;;15.90;6.87;;;3.70;99.90;;;;;;4946312;29;20165;-80
2021/03/08 00:14:36;;;;;;;12.43;7.93;;;3.70;99.90;;;;;;4945013;29;20429;-80
2021/03/08 00:17:04;;;;;;;7.53;6.73;;;3.70;99.90;;;;;;4945130;29;20424;-79
2021/03/08 00:19:29;;;;;;;8.50;7.77;;;3.70;99.90;;;;;;4944970;29;20203;-80
2021/03/08 00:21:55;;;;;;;7.20;6.50;;;3.60;99.90;;;;;;4945036;29;20399;-80
2021/03/08 00:24:21;;;;;;;8.90;6.57;;;3.40;99.90;;;;;;4945415;29;20168;-79
2021/03/08 00:26:47;;;;;;;7.80;6.93;;;3.40;99.90;;;;;;4944980;29;20168;-79
2021/03/08 00:29:13;;;;;;;10.13;6.50;;;3.20;99.90;;;;;;4946112;29;20416;-80
2021/03/08 00:31:38;;;;;;;8.73;7.50;;;3.30;99.90;;;;;;4944595;29;20168;-80
2021/03/08 00:34:04;;;;;;;6.97;6.23;;;3.40;99.90;;;;;;4945353;29;20203;-80
2021/03/08 00:36:30;;;;;;;7.13;6.17;;;3.50;99.90;;;;;;4944520;29;20207;-79
2021/03/08 00:38:56;;;;;;;10.83;7.90;;;3.50;99.90;;;;;;4944358;29;20171;-80
2021/03/08 00:41:21;;;;;;;7.90;6.60;;;3.50;99.90;;;;;;4944369;29;20621;-80
2021/03/08 00:43:47;;;;;;;7.43;5.33;;;3.50;99.90;;;;;;4944922;29;20342;-80
2021/03/08 00:46:13;;;;;;;8.73;6.40;;;3.40;99.90;;;;;;4944323;29;20172;-80
2021/03/08 00:48:38;;;;;;;12.93;6.97;;;3.40;99.90;;;;;;4942418;29;20644;-79
2021/03/08 00:51:04;;;;;;;11.03;7.43;;;3.40;99.90;;;;;;4943263;29;20605;-79
2021/03/08 00:53:30;;;;;;;6.90;6.20;;;3.40;99.90;;;;;;4943632;29;20641;-80
2021/03/08 00:55:56;;;;;;;9.17;7.10;;;3.40;99.90;;;;;;4943676;29;20156;-80
2021/03/08 00:58:22;;;;;;;8.00;6.23;;;3.40;99.90;;;;;;4943730;29;20164;-80
2021/03/08 01:00:49;;;;;;;7.50;6.53;;;3.40;99.90;;;;;;4943590;29;20243;-82
2021/03/08 01:03:15;;;;;;;6.90;6.30;;;3.50;99.90;;;;;;4943508;29;20404;-80
2021/03/08 01:05:41;;;;;;;8.60;6.17;;;3.50;99.90;;;;;;4943041;29;20400;-80
2021/03/08 01:08:07;;;;;;;9.10;5.90;;;3.50;99.90;;;;;;4951194;29;20163;-79
2021/03/08 01:10:33;;;;;;;7.67;6.90;;;3.40;99.90;;;;;;4957979;29;20169;-80
2021/03/08 01:12:58;;;;;;;9.47;7.73;;;3.40;99.90;;;;;;4943710;29;20324;-80
2021/03/08 01:15:24;;;;;;;8.07;6.10;;;3.40;99.90;;;;;;4942528;29;20399;-80
2021/03/08 01:17:50;;;;;;;8.13;6.83;;;3.30;99.90;;;;;;4943037;29;20594;-80
2021/03/08 01:20:18;;;;;;;6.53;5.67;;;3.30;99.90;;;;;;4942683;29;20184;-79
2021/03/08 01:22:45;;;;;;;7.23;6.30;;;3.30;99.90;;;;;;4943332;29;20598;-80
2021/03/08 01:25:15;;;;;;;11.67;7.23;;;3.20;99.90;;;;;;4942361;29;20456;-80
2021/03/08 01:27:41;;;;;;;8.07;6.50;;;3.10;99.90;;;;;;4944139;29;20393;-80
2021/03/08 01:30:13;;;;;;;7.80;5.50;;;3.10;99.90;;;;;;4948816;29;20431;-78
2021/03/08 01:32:39;;;;;;;8.20;7.37;;;3.10;99.90;;;;;;4959370;29;20416;-79
2021/03/08 01:35:06;;;;;;;7.17;6.17;;;3.10;99.90;;;;;;4957888;29;20440;-80
2021/03/08 01:37:32;;;;;;;7.37;6.70;;;3.20;99.90;;;;;;4958326;29;20251;-79
2021/03/08 01:39:59;;;;;;;7.27;6.57;;;3.10;99.90;;;;;;4943214;29;20404;-79
2021/03/08 01:42:25;;;;;;;7.33;6.10;;;3.10;99.90;;;;;;4942126;29;20400;-79
2021/03/08 01:44:51;;;;;;;9.47;6.67;;;3.00;99.90;;;;;;4942369;29;20406;-80
2021/03/08 01:47:17;;;;;;;11.70;7.47;;;2.90;99.90;;;;;;4942234;29;20176;-80
2021/03/08 01:49:42;;;;;;;7.43;5.93;;;2.90;99.90;;;;;;4943105;29;20408;-80
2021/03/08 01:52:10;;;;;;;6.70;5.60;;;2.50;99.90;;;;;;4942955;29;20666;-80
2021/03/08 01:54:36;;;;;;;10.43;8.57;;;2.30;99.90;;;;;;4940442;29;20313;-80
2021/03/08 01:57:02;;;;;;;7.67;6.87;;;2.20;99.90;;;;;;4941888;29;20396;-80
2021/03/08 01:59:28;;;;;;;6.27;5.67;;;2.00;99.90;;;;;;4942008;29;20400;-80
2021/03/08 02:01:55;;;;;;;7.70;6.40;;;1.70;99.90;;;;;;4940127;29;20396;-80
2021/03/08 02:04:22;;;;;;;6.00;5.50;;;1.20;99.90;;;;;;4942071;29;20400;-79
2021/03/08 02:06:48;;;;;;;12.53;6.70;;;0.80;99.90;;;;;;4942404;29;20408;-80
2021/03/08 02:09:15;;;;;;;10.03;6.50;;;0.60;99.90;;;;;;4942279;29;20404;-80
2021/03/08 02:11:43;;;;;;;8.13;6.17;;;0.50;99.90;;;;;;4940620;29;20439;-80
2021/03/08 02:14:27;;;;;;;6.50;5.20;;;0.70;99.90;;;;;;4939933;29;20470;-80
2021/03/08 02:17:05;;;;;;;9.43;6.53;;;0.60;99.90;;;;;;4941705;29;20392;-79
2021/03/08 02:19:53;;;;;;;10.00;7.23;;;0.70;99.90;;;;;;4941753;29;20800;-80
2021/03/08 02:22:49;;;;;;;10.13;6.47;;;0.80;99.90;;;;;;4941775;29;20519;-79
2021/03/08 02:25:24;;;;;;;7.70;5.67;;;1.00;99.90;;;;;;4941698;29;20393;-80
2021/03/08 02:28:22;;;;;;;7.60;5.53;;;0.90;99.90;;;;;;4941752;29;20405;-79
2021/03/08 02:30:50;;;;;;;10.10;6.13;;;0.60;99.90;;;;;;4941225;29;20399;-79
2021/03/08 02:33:23;;;;;;;9.03;5.90;;;0.50;99.90;;;;;;4941762;29;20543;-80
2021/03/08 02:35:54;;;;;;;8.23;6.17;;;0.40;99.90;;;;;;4939722;29;20416;-80
2021/03/08 02:38:25;;;;;;;10.07;6.87;;;0.30;99.90;;;;;;4941323;29;20919;-80
2021/03/08 02:40:59;;;;;;;6.83;5.80;;;0.30;99.90;;;;;;4941332;29;20499;-80
2021/03/08 02:43:45;;;;;;;5.83;5.00;;;0.30;99.90;;;;;;4941143;29;20391;-80
2021/03/08 02:46:17;;;;;;;10.37;6.13;;;0.10;99.90;;;;;;4940803;29;20755;-79
2021/03/08 02:48:45;;;;;;;9.50;6.50;;;0.10;99.90;;;;;;4941646;29;20785;-79
2021/03/08 02:51:13;;;;;;;10.70;6.10;;;0.00;99.90;;;;;;4941124;29;20551;-79
2021/03/08 02:53:42;;;;;;;8.70;5.90;;;0.00;99.90;;;;;;4941620;29;20451;-80
2021/03/08 02:56:13;;;;;;;6.27;5.47;;;-0.10;99.90;;;;;;4942364;29;20415;-80
2021/03/08 02:58:42;;;;;;;10.60;6.10;;;-0.20;99.90;;;;;;4941285;29;20382;-79
2021/03/08 03:01:09;;;;;;;5.67;4.70;;;-0.10;99.90;;;;;;4941946;29;20544;-79
2021/03/08 03:03:39;;;;;;;7.67;5.80;;;-0.10;99.90;;;;;;4940782;29;20404;-79
2021/03/08 03:06:07;;;;;;;9.03;5.80;;;-0.10;99.90;;;;;;4941601;29;20487;-79
2021/03/08 03:08:33;;;;;;;6.47;5.53;;;-0.10;99.90;;;;;;4940981;29;20404;-79
2021/03/08 03:11:01;;;;;;;6.30;5.77;;;-0.30;99.90;;;;;;4940848;29;20399;-80
2021/03/08 03:13:28;;;;;;;12.82;9.00;;;-0.10;99.90;;;;;;4942769;29;20460;-79
2021/03/08 03:15:57;;;;;;;7.47;6.27;;;-0.10;99.90;;;;;;4945538;29;20630;-79
2021/03/08 03:18:26;;;;;;;8.50;7.03;;;-0.10;99.90;;;;;;4945164;29;20425;-80
2021/03/08 03:20:53;;;;;;;8.80;7.90;;;-0.30;99.90;;;;;;4945121;29;20407;-79
2021/03/08 03:23:21;;;;;;;8.63;6.50;;;-0.40;99.90;;;;;;4946385;29;20432;-80
2021/03/08 03:25:49;;;;;;;9.70;7.60;;;-0.60;99.90;;;;;;4945158;29;20407;-80
2021/03/08 03:28:15;;;;;;;13.73;6.07;;;-0.60;99.90;;;;;;4950149;29;20395;-79
2021/03/08 03:30:42;;;;;;;10.07;6.10;;;-0.60;99.90;;;;;;4955495;29;20415;-79
2021/03/08 03:33:08;;;;;;;7.20;5.10;;;-0.60;99.90;;;;;;4954582;29;20516;-79
2021/03/08 03:35:34;;;;;;;5.83;4.63;;;-0.70;99.90;;;;;;4962022;29;20400;-79
2021/03/08 03:38:02;;;;;;;6.07;5.40;;;-1.00;99.90;;;;;;4962891;29;20533;-78
2021/03/08 03:40:27;;;;;;;5.80;5.07;;;-0.90;99.90;;;;;;4961490;29;20432;-78
2021/03/08 03:42:55;;;;;;;7.63;5.60;;;-0.70;99.90;;;;;;4962634;29;20427;-78
2021/03/08 03:45:22;;;;;;;6.80;5.87;;;-0.70;99.90;;;;;;4961012;29;20156;-77
2021/03/08 03:47:49;;;;;;;9.57;6.13;;;-0.70;99.90;;;;;;4960475;29;20439;-79
2021/03/08 03:50:18;;;;;;;6.50;5.73;;;-0.80;99.90;;;;;;4960368;29;20396;-78
2021/03/08 03:52:45;;;;;;;6.43;5.10;;;-0.90;99.90;;;;;;4955582;29;20475;-79
2021/03/08 03:55:14;;;;;;;10.97;5.30;;;-0.90;99.90;;;;;;4953335;29;20428;-78
2021/03/08 03:58:11;;;;;;;5.13;4.00;;;-0.90;99.90;;;;;;4956033;29;20539;-78
2021/03/08 04:00:46;;;;;;;7.60;6.90;;;-0.90;99.90;;;;;;4942349;29;20393;-79
2021/03/08 04:03:14;;;;;;;6.00;5.43;;;-0.80;99.90;;;;;;4942061;29;20709;-78
2021/03/08 04:05:42;;;;;;;5.23;4.43;;;-0.80;99.90;;;;;;4941475;29;20396;-79
2021/03/08 04:08:11;;;;;;;8.93;6.33;;;-0.80;99.90;;;;;;4940655;29;20616;-81
2021/03/08 04:10:40;;;;;;;4.80;4.27;;;-1.00;99.90;;;;;;4943339;29;20803;-79
2021/03/08 04:13:11;;;;;;;5.57;4.87;;;-0.90;99.90;;;;;;4945500;29;20400;-79
2021/03/08 04:15:38;;;;;;;6.53;4.13;;;-0.90;99.90;;;;;;4947376;29;20393;-80
2021/03/08 04:18:05;;;;;;;5.50;5.10;;;-0.80;99.90;;;;;;4947004;29;20917;-80
2021/03/08 04:20:32;;;;;;;7.93;6.73;;;-0.80;99.90;;;;;;4956810;29;20411;-79
2021/03/08 04:23:04;;;;;;;9.70;6.77;;;-0.70;99.90;;;;;;4953413;29;20416;-80
2021/03/08 04:25:32;;;;;;;6.33;5.33;;;-0.70;99.90;;;;;;4946640;29;20415;-80
2021/03/08 04:28:00;;;;;;;8.37;5.37;;;-0.50;99.90;;;;;;4961022;29;20397;-79
2021/03/08 04:30:26;;;;;;;11.17;7.10;;;-0.30;99.90;;;;;;4960907;29;20396;-78
2021/03/08 04:32:53;;;;;;;11.70;6.87;;;-0.30;99.90;;;;;;4961179;29;20431;-80
2021/03/08 04:35:23;;;;;;;10.80;6.10;;;-0.50;99.90;;;;;;4961053;29;20419;-79
2021/03/08 04:37:50;;;;;;;7.37;5.30;;;-0.40;99.90;;;;;;4960670;29;20490;-78
2021/03/08 04:40:17;;;;;;;7.93;5.30;;;-0.40;99.90;;;;;;4960776;29;20408;-79
2021/03/08 04:42:44;;;;;;;9.17;7.20;;;-0.70;99.90;;;;;;4956602;29;20810;-80
2021/03/08 04:45:11;;;;;;;7.77;6.97;;;-0.70;99.90;;;;;;4961357;29;20416;-78
2021/03/08 04:47:40;;;;;;;5.10;4.53;;;-0.70;99.90;;;;;;4976235;28;20435;-79
2021/03/08 04:50:08;;;;;;;10.20;7.77;;;-0.50;99.90;;;;;;4960234;29;20432;-79
2021/03/08 04:52:37;;;;;;;8.23;6.70;;;-0.40;99.90;;;;;;4948485;29;20388;-79
2021/03/08 04:55:06;;;;;;;4.93;4.43;;;-0.60;99.90;;;;;;4943217;29;20458;-80
2021/03/08 04:57:34;;;;;;;11.17;5.37;;;-0.50;99.90;;;;;;4943416;29;20730;-80
2021/03/08 05:00:02;;;;;;;7.23;6.53;;;-0.70;99.90;;;;;;4943313;29;20893;-80
2021/03/08 05:02:32;;;;;;;5.80;4.60;;;-1.00;99.90;;;;;;4943425;29;20408;-80
2021/03/08 05:04:59;;;;;;;6.50;5.43;;;-0.80;99.90;;;;;;4943524;29;20424;-80
2021/03/08 05:07:26;;;;;;;5.70;5.20;;;-0.60;99.90;;;;;;4943271;29;20408;-80
2021/03/08 05:09:55;;;;;;;7.00;6.30;;;-0.80;99.90;;;;;;4942751;29;20408;-80
2021/03/08 05:12:26;;;;;;;6.30;5.70;;;-0.80;99.90;;;;;;4944011;29;20761;-80
2021/03/08 05:14:54;;;;;;;6.83;6.13;;;-0.80;99.90;;;;;;4942271;29;20459;-80
2021/03/08 05:17:22;;;;;;;7.60;5.00;;;-0.90;99.90;;;;;;4943521;29;20410;-80
2021/03/08 05:19:49;;;;;;;8.97;6.13;;;-1.20;99.90;;;;;;4943549;29;20828;-80
2021/03/08 05:22:16;;;;;;;5.63;5.10;;;-1.70;99.90;;;;;;4944530;29;20487;-80
2021/03/08 05:24:48;;;;;;;8.07;6.03;;;-1.60;99.90;;;;;;4946199;29;20400;-80
2021/03/08 05:27:15;;;;;;;7.50;6.40;;;-1.50;99.90;;;;;;4944704;29;20447;-80
2021/03/08 05:29:43;;;;;;;7.20;5.63;;;-1.40;99.90;;;;;;4943565;29;20455;-79
2021/03/08 05:32:15;;;;;;;7.87;5.90;;;-1.30;99.90;;;;;;4943890;29;20519;-79
2021/03/08 05:34:47;;;;;;;9.80;5.60;;;-1.30;99.90;;;;;;4944204;29;20475;-80
2021/03/08 05:37:14;;;;;;;5.73;5.23;;;-1.20;99.90;;;;;;4943282;29;20562;-80
2021/03/08 05:39:43;;;;;;;9.07;5.10;;;-1.20;99.90;;;;;;4942994;29;20400;-80
2021/03/08 05:42:11;;;;;;;6.80;4.70;;;-1.20;99.90;;;;;;4942872;29;20401;-80
2021/03/08 05:44:56;;;;;;;13.77;6.40;;;-1.20;99.90;;;;;;4943489;29;20419;-80
2021/03/08 05:47:56;;;;;;;12.43;6.87;;;-1.40;99.90;;;;;;4943536;29;20569;-79
2021/03/08 05:50:43;;;;;;;5.53;5.00;;;-1.20;99.90;;;;;;4942095;29;20439;-80
2021/03/08 05:53:33;;;;;;;9.73;5.70;;;-1.30;99.90;;;;;;4943831;29;20407;-80
2021/03/08 05:56:11;;;;;;;6.33;5.73;;;-1.00;99.90;;;;;;4943571;29;20411;-79
2021/03/08 05:58:49;;;;;;;7.57;6.50;;;-1.00;99.90;;;;;;4943545;29;20414;-80
2021/03/08 06:01:42;;;;;;;8.93;6.70;;;-1.00;99.90;;;;;;4941727;29;20435;-80
2021/03/08 06:04:37;;;;;;;9.23;6.90;;;-0.90;99.90;;;;;;4943516;29;20416;-80
2021/03/08 06:07:33;;;;;;;10.80;7.80;;;-1.00;99.90;;;;;;4943730;29;20490;-80
2021/03/08 06:10:05;;;;;;;7.13;5.97;;;-1.10;99.90;;;;;;4949502;29;20450;-79
2021/03/08 06:12:36;;;;;;;6.77;6.17;;;-0.90;99.90;;;;;;4940350;29;20427;-79
2021/03/08 06:15:08;;;;;;;8.50;5.87;;;-0.70;99.90;;;;;;4940442;29;20470;-79
2021/03/08 06:17:36;;;;;;;12.73;6.57;;;-0.60;99.90;;;;;;4941058;29;20396;-79
2021/03/08 06:20:02;;;;;;;11.70;6.93;;;-0.40;99.90;;;;;;4941043;29;20392;-80
2021/03/08 06:22:31;;;;;;;11.17;8.20;;;-0.40;99.90;;;;;;4941583;29;20396;-78
2021/03/08 06:24:58;;;;;;;7.60;6.90;;;-0.50;99.90;;;;;;4942780;29;20407;-80
2021/03/08 06:27:25;;;;;;;7.10;6.10;;;-0.50;99.90;;;;;;4942145;29;20450;-80
2021/03/08 06:29:52;;;;;;;7.73;7.03;;;-0.40;99.90;;;;;;4942233;29;20738;-80
2021/03/08 06:32:19;;;;;;;10.77;6.70;;;-0.60;99.90;;;;;;4943025;29;20432;-80
2021/03/08 06:34:45;;;;;;;12.43;7.03;;;-0.50;99.90;;;;;;4943044;29;20510;-80
2021/03/08 06:37:12;;;;;;;8.97;7.27;;;-0.50;99.90;;;;;;4941339;29;20820;-79
2021/03/08 06:39:44;;;;;;;9.40;6.97;;;-0.50;99.90;;;;;;4942261;29;20402;-81
2021/03/08 06:42:12;;;;;;;7.93;7.03;;;-0.40;99.90;;;;;;4950536;29;20407;-80
2021/03/08 06:44:38;;;;;;;8.30;6.40;;;0.10;99.90;;;;;;4949085;29;20392;-80
2021/03/08 06:47:05;;;;;;;9.63;5.83;;;-0.40;99.90;;;;;;4941572;29;20400;-80
2021/03/08 06:49:32;;;;;;;9.87;5.83;;;-0.40;99.90;;;;;;4947033;29;20968;-80
2021/03/08 06:52:08;;;;;;;10.50;6.87;;;-0.40;99.90;;;;;;4944892;29;20420;-80
2021/03/08 06:54:36;;;;;;;8.53;4.57;;;-0.70;99.90;;;;;;4944642;29;20543;-79
2021/03/08 06:57:22;;;;;;;12.27;7.53;;;-0.60;99.90;;;;;;4944220;29;20396;-80
2021/03/08 07:00:04;;;;;;;8.80;5.43;;;-0.40;99.90;;;;;;4945892;29;20607;-80
2021/03/08 07:02:44;;;;;;;10.70;7.40;;;-0.60;99.90;;;;;;4950396;28;20436;-80
2021/03/08 07:05:12;;;;;;;9.60;6.30;;;-0.40;99.90;;;;;;4958241;29;20433;-81
2021/03/08 07:07:59;;;;;;;14.40;7.90;;;-0.30;99.90;;;;;;4942555;29;20408;-80
2021/03/08 07:10:42;;;;;;;14.40;9.27;;;-0.60;99.90;;;;;;4952921;29;20410;-80
2021/03/08 07:13:10;;;;;;;13.63;8.30;;;-0.60;99.90;;;;;;4963270;29;20418;-78
2021/03/08 07:15:55;;;;;;;9.73;7.50;;;-0.20;99.90;;;;;;4954683;28;20448;-80
2021/03/08 07:18:21;;;;;;;9.13;6.60;;;-0.40;99.90;;;;;;4969085;28;20413;-79
2021/03/08 07:20:52;;;;;;;12.33;7.40;;;-0.40;99.90;;;;;;4962472;29;20397;-78
2021/03/08 07:23:24;;;;;;;7.43;6.73;;;-0.20;99.90;;;;;;4962107;29;20419;-79
2021/03/08 07:26:05;;;;;;;8.07;6.97;;;0.10;99.90;;;;;;4984510;28;20398;-79
2021/03/08 07:28:31;;;;;;;10.93;7.80;;;0.00;99.90;;;;;;4979294;28;20452;-79
2021/03/08 07:30:57;;;;;;;8.10;6.60;;;-0.10;99.90;;;;;;4958249;29;20451;-80
2021/03/08 07:33:23;;;;;;;10.37;7.97;;;0.00;99.90;;;;;;4966883;28;20238;-80
2021/03/08 07:35:52;;;;;;;14.80;7.70;;;0.20;99.90;;;;;;4970407;28;20210;-80
2021/03/08 07:38:31;;;;;;;18.70;9.70;;;0.00;99.90;;;;;;4944119;29;20472;-80
2021/03/08 07:41:12;;;;;;;9.83;8.77;;;0.10;99.90;;;;;;4935145;29;20457;-79
2021/03/08 07:43:41;;;;;;;12.43;6.97;;;0.10;99.90;;;;;;4919842;29;20814;-80
2021/03/08 07:46:26;;;;;;;7.70;6.50;;;0.00;99.90;;;;;;4920449;29;20472;-80
2021/03/08 07:48:52;;;;;;;7.40;6.67;;;0.20;99.90;;;;;;4931164;29;20470;-80
2021/03/08 07:51:18;;;;;;;6.53;5.97;;;0.30;99.90;;;;;;4943808;29;20439;-79
2021/03/08 07:53:44;;;;;;;16.40;8.27;;;0.10;99.90;;;;;;4907576;29;20583;-79
2021/03/08 07:56:10;;;;;;;7.20;6.47;;;0.10;99.90;;;;;;4939406;29;20466;-79
2021/03/08 07:58:38;;;;;;;10.80;7.57;;;0.20;99.90;;;;;;4922467;29;20201;-79
2021/03/08 08:01:07;;;;;;;13.83;6.40;;;0.30;99.90;;;;;;4956986;29;20439;-79
2021/03/08 08:03:35;;;;;;;12.60;7.17;;;0.30;99.90;;;;;;4954119;29;20453;-80
2021/03/08 08:06:04;;;;;;;7.73;6.87;;;0.40;99.90;;;;;;4954475;29;20451;-79
2021/03/08 08:08:32;;;;;;;8.87;7.97;;;0.60;99.90;;;;;;4959325;29;20865;-79
2021/03/08 08:11:00;;;;;;;8.47;7.30;;;0.40;99.90;;;;;;4966843;28;20450;-78
2021/03/08 08:17:09;;;;;;;22.63;6.50;;;0.60;99.90;;;;;;4971227;28;20426;-79
2021/03/08 08:19:44;;;;;;;12.00;6.50;;;0.70;99.90;;;;;;4957836;29;20401;-79
2021/03/08 08:22:23;;;;;;;12.97;8.00;;;0.70;99.90;;;;;;4958978;28;20521;-79
2021/03/08 08:24:52;;;;;;;7.73;6.93;;;0.90;99.90;;;;;;4960431;28;21011;-79
2021/03/08 08:27:18;;;;;;;13.40;7.53;;;1.50;99.90;;;;;;4961329;28;20423;-79
2021/03/08 08:29:46;;;;;;;14.60;7.77;;;1.40;99.90;;;;;;4955337;29;20462;-79
2021/03/08 08:32:13;;;;;;;20.23;10.07;;;1.50;99.90;;;;;;4934706;29;20437;-79
2021/03/08 08:34:42;;;;;;;12.90;8.20;;;1.00;99.90;;;;;;4960740;28;20519;-80
2021/03/08 08:37:13;;;;;;;12.10;8.70;;;1.20;99.90;;;;;;4959853;28;20478;-81
2021/03/08 08:39:41;;;;;;;15.27;7.53;;;1.20;99.90;;;;;;4957456;29;20458;-80
2021/03/08 08:42:18;;;;;;;9.93;7.77;;;1.50;99.90;;;;;;4959216;28;20446;-80
2021/03/08 08:44:47;;;;;;;17.00;9.03;;;1.60;99.90;;;;;;4952549;28;20747;-80
2021/03/08 08:47:17;;;;;;;14.93;11.13;;;1.70;99.90;;;;;;4957468;28;20514;-80
2021/03/08 08:49:47;;;;;;;10.77;7.50;;;1.50;99.90;;;;;;4956206;28;20450;-80
2021/03/08 08:52:13;;;;;;;14.33;7.90;;;1.60;99.90;;;;;;4957567;28;20438;-79
2021/03/08 08:54:55;;;;;;;15.73;8.13;;;1.90;99.90;;;;;;4959007;28;20474;-79
2021/03/08 08:57:21;;;;;;;11.70;9.07;;;2.40;99.90;;;;;;4955762;28;20506;-80
2021/03/08 09:00:07;;;;;;;13.60;9.10;;;2.50;99.90;;;;;;4961226;29;20430;-80
2021/03/08 09:02:35;;;;;;;9.57;7.13;;;2.40;99.90;;;;;;4956936;28;20427;-79
2021/03/08 09:05:01;;;;;;;11.10;8.60;;;2.40;99.90;;;;;;4955394;28;20430;-79
2021/03/08 09:07:29;;;;;;;16.27;9.63;;;2.70;99.90;;;;;;4955368;28;20426;-79
2021/03/08 09:09:58;;;;;;;16.47;10.60;;;3.10;99.90;;;;;;4956251;28;20251;-80
2021/03/08 09:12:32;;;;;;;13.85;11.45;;;2.70;99.90;;;;;;4956107;28;20518;-79
2021/03/08 09:15:05;;;;;;;12.37;10.37;;;2.80;99.90;;;;;;4958547;28;20513;-78
2021/03/08 09:17:32;;;;;;;12.60;8.60;;;2.80;99.90;;;;;;4943330;28;20442;-78
2021/03/08 09:20:29;;;;;;;9.90;8.13;;;2.30;99.90;;;;;;4924126;29;20979;-78
2021/03/08 09:22:59;;;;;;;17.60;8.70;;;2.30;99.90;;;;;;4928410;28;20438;-80
2021/03/08 09:25:27;;;;;;;11.60;8.53;;;2.50;99.90;;;;;;4954319;28;20435;-81
2021/03/08 09:28:10;;;;;;;13.53;9.53;;;2.70;99.90;;;;;;4955452;28;20430;-81
2021/03/08 09:30:45;;;;;;;8.60;7.70;;;2.80;99.90;;;;;;4959756;28;20427;-81
2021/03/08 09:33:13;;;;;;;12.43;8.43;;;3.20;99.90;;;;;;4960245;28;20502;-80
2021/03/08 09:35:43;;;;;;;12.73;8.37;;;3.30;99.90;;;;;;4957796;29;20529;-81
2021/03/08 09:38:14;;;;;;;9.77;7.40;;;3.50;99.90;;;;;;4952218;28;20472;-81
2021/03/08 09:40:43;;;;;;;14.97;8.70;;;3.20;99.90;;;;;;4959287;28;20493;-81
2021/03/08 09:43:26;;;;;;;11.13;7.47;;;3.30;99.90;;;;;;4957568;28;20554;-80
2021/03/08 09:45:59;;;;;;;12.07;7.80;;;3.90;99.90;;;;;;4959384;28;20433;-82
2021/03/08 09:48:25;;;;;;;14.00;9.47;;;4.20;99.90;;;;;;4956860;29;20438;-81
2021/03/08 09:50:51;;;;;;;10.33;7.30;;;4.40;99.90;;;;;;4939767;29;20451;-80
2021/03/08 09:53:17;;;;;;;9.80;7.47;;;4.50;99.90;;;;;;4954241;28;20478;-81
2021/03/08 09:55:43;;;;;;;9.07;6.60;;;4.50;99.90;;;;;;4955224;28;20435;-81
2021/03/08 09:58:18;;;;;;;10.17;8.07;;;4.40;99.90;;;;;;4959285;28;20191;-82
2021/03/08 10:00:47;;;;;;;16.17;10.90;;;4.70;99.90;;;;;;4957072;29;20270;-80
2021/03/08 10:03:14;;;;;;;14.05;10.50;;;4.50;99.90;;;;;;4934709;29;20419;-82
2021/03/08 10:05:42;;;;;;;11.03;8.70;;;4.60;99.90;;;;;;4947774;29;20192;-79
2021/03/08 10:08:11;;;;;;;10.83;8.50;;;4.40;99.90;;;;;;4957322;28;20487;-78
2021/03/08 10:10:51;;;;;;;11.80;7.73;;;4.50;99.90;;;;;;4939526;29;20439;-79
2021/03/08 10:13:18;;;;;;;8.60;6.83;;;4.60;99.90;;;;;;4957225;28;20431;-78
2021/03/08 10:15:47;;;;;;;16.10;9.20;;;4.70;99.90;;;;;;4955450;29;20450;-79
2021/03/08 10:18:16;;;;;;;15.83;10.37;;;4.80;99.90;;;;;;4961918;28;20534;-79
2021/03/08 10:20:46;;;;;;;10.10;7.60;;;4.70;99.90;;;;;;4951258;28;20427;-78
2021/03/08 10:23:16;;;;;;;14.40;9.43;;;4.80;99.90;;;;;;4948399;28;20424;-80
2021/03/08 10:25:42;;;;;;;13.60;10.10;;;4.80;99.90;;;;;;4955408;29;20470;-79
2021/03/08 10:28:08;;;;;;;12.87;7.97;;;4.90;99.90;;;;;;4954819;28;21007;-78
2021/03/08 10:30:35;;;;;;;13.57;9.60;;;4.80;99.90;;;;;;4952732;28;20521;-78
2021/03/08 10:33:04;;;;;;;13.63;8.97;;;4.20;99.90;;;;;;4952608;28;20183;-79
2021/03/08 10:35:33;;;;;;;13.80;8.50;;;4.10;99.90;;;;;;4955238;28;20454;-79
2021/03/08 10:38:01;;;;;;;10.63;7.80;;;3.80;99.90;;;;;;4955796;28;20474;-80
2021/03/08 10:40:28;;;;;;;9.93;6.97;;;4.00;99.90;;;;;;4951937;28;20446;-80
2021/03/08 10:42:55;;;;;;;12.77;9.30;;;4.30;99.90;;;;;;4958040;29;20414;-81
2021/03/08 10:45:21;;;;;;;13.03;7.93;;;4.60;99.90;;;;;;4955964;28;20815;-81
2021/03/08 10:48:05;;;;;;;15.20;9.50;;;4.50;99.90;;;;;;4959635;28;20521;-80
2021/03/08 10:50:50;;;;;;;16.83;9.83;;;4.60;99.90;;;;;;4957750;28;20925;-79
2021/03/08 10:53:17;;;;;;;13.10;7.70;;;4.30;99.90;;;;;;4959908;28;20472;-79
2021/03/08 10:55:44;;;;;;;11.03;8.53;;;4.00;99.90;;;;;;4951406;28;20435;-78
2021/03/08 10:58:10;;;;;;;10.10;8.27;;;4.40;99.90;;;;;;4952821;28;20493;-80
2021/03/08 11:00:40;;;;;;;10.23;7.20;;;4.50;99.90;;;;;;4948299;28;20489;-79
2021/03/08 11:03:27;;;;;;;14.73;9.10;;;4.80;99.90;;;;;;4914403;29;20891;-80
2021/03/08 11:06:10;;;;;;;13.68;11.50;;;4.80;99.90;;;;;;4898585;29;20427;-80
2021/03/08 11:08:39;;;;;;;13.53;10.17;;;4.50;99.90;;;;;;4934453;29;20188;-80
2021/03/08 11:11:22;;;;;;;13.73;8.37;;;4.60;99.90;;;;;;4933162;29;20435;-79
2021/03/08 11:13:50;;;;;;;8.80;8.00;;;4.40;99.90;;;;;;4928320;29;20558;-79
2021/03/08 11:16:17;;;;;;;12.30;8.50;;;4.00;99.90;;;;;;4938967;29;20451;-79
2021/03/08 11:18:44;;;;;;;13.30;8.10;;;3.80;99.90;;;;;;4938417;29;20990;-80
2021/03/08 11:21:26;;;;;;;17.20;9.23;;;3.60;99.90;;;;;;4928126;29;20495;-82
2021/03/08 11:23:53;;;;;;;9.77;7.53;;;3.90;99.90;;;;;;4900254;29;20827;-80
2021/03/08 11:26:22;;;;;;;15.50;8.80;;;4.40;99.90;;;;;;4931736;29;20498;-80
2021/03/08 11:28:48;;;;;;;11.20;7.50;;;4.50;99.90;;;;;;4898139;29;20440;-81
2021/03/08 11:34:55;;;;;;;10.90;9.17;;;4.90;99.90;;;;;;4948785;29;20494;-82
2021/03/08 11:37:22;;;;;;;10.73;8.27;;;5.20;99.90;;;;;;4948438;28;20485;-83
2021/03/08 11:39:53;;;;;;;16.33;8.70;;;5.10;99.90;;;;;;4935905;29;20502;-83
2021/03/08 11:42:23;;;;;;;10.83;7.80;;;5.20;99.90;;;;;;4954464;28;20419;-81
2021/03/08 11:44:48;;;;;;;17.83;7.90;;;5.10;99.90;;;;;;4950056;29;20855;-81
2021/03/08 11:47:15;;;;;;;14.83;9.87;;;5.10;99.90;;;;;;4959740;28;20463;-83
2021/03/08 11:49:42;;;;;;;13.00;8.90;;;5.00;99.90;;;;;;4964257;28;20191;-82
2021/03/08 11:52:10;;;;;;;13.40;9.80;;;5.20;99.90;;;;;;4942854;29;20503;-81
2021/03/08 11:54:36;;;;;;;11.67;8.77;;;5.50;99.90;;;;;;4964680;28;20524;-83
2021/03/08 11:57:07;;;;;;;12.83;9.30;;;5.70;99.90;;;;;;4958038;28;20518;-83
2021/03/08 11:59:33;;;;;;;15.90;9.57;;;5.60;99.90;;;;;;4949373;28;21565;-82
2021/03/08 12:01:59;;;;;;;29.20;10.70;;;5.50;99.90;;;;;;4958927;29;20430;-80
2021/03/08 12:04:25;;;;;;;12.87;10.17;;;5.60;99.90;;;;;;4937508;28;20213;-81
2021/03/08 12:06:51;;;;;;;10.60;8.23;;;5.80;99.90;;;;;;4954913;29;20959;-80
2021/03/08 12:09:17;;;;;;;15.40;9.80;;;6.00;99.90;;;;;;4957502;28;20467;-82
2021/03/08 12:11:43;;;;;;;10.60;9.50;;;5.80;99.90;;;;;;4961244;28;20183;-82
2021/03/08 12:14:09;;;;;;;14.53;9.27;;;5.90;99.90;;;;;;4961781;28;20546;-83
2021/03/08 12:16:35;;;;;;;16.57;9.10;;;5.90;99.90;;;;;;4955978;29;20463;-80
2021/03/08 12:19:01;;;;;;;12.23;8.87;;;5.80;99.90;;;;;;4953389;29;20195;-81
2021/03/08 12:21:27;;;;;;;11.87;8.53;;;5.90;99.90;;;;;;4955726;29;20192;-81
2021/03/08 12:23:53;;;;;;;13.27;10.07;;;5.60;99.90;;;;;;4960391;29;20445;-81
2021/03/08 12:26:19;;;;;;;14.87;9.00;;;5.20;99.90;;;;;;4960475;29;20434;-81
2021/03/08 12:28:47;;;;;;;10.77;8.23;;;5.20;99.90;;;;;;4963817;28;20604;-80
2021/03/08 12:31:17;;;;;;;14.60;9.70;;;5.00;99.90;;;;;;4945546;29;20518;-80
2021/03/08 12:33:42;;;;;;;14.23;9.77;;;4.90;99.90;;;;;;4958910;28;20517;-80
2021/03/08 12:36:09;;;;;;;15.90;9.13;;;5.20;99.90;;;;;;4960838;28;20819;-81
2021/03/08 12:38:35;;;;;;;13.17;9.93;;;4.80;99.90;;;;;;4955715;28;20237;-79
2021/03/08 12:41:02;;;;;;;13.63;9.57;;;5.10;99.90;;;;;;4959624;29;20439;-81
2021/03/08 12:43:29;;;;;;;10.80;9.70;;;5.30;99.90;;;;;;4954674;28;21018;-79
2021/03/08 12:45:58;;;;;;;12.10;8.73;;;5.80;99.90;;;;;;4940578;29;20433;-78
2021/03/08 12:48:23;;;;;;;12.13;9.60;;;6.10;99.90;;;;;;4971763;28;20461;-81
2021/03/08 12:50:50;;;;;;;13.77;9.53;;;6.30;99.90;;;;;;4953301;28;20453;-78
2021/03/08 12:53:16;;;;;;;14.63;9.40;;;6.30;99.90;;;;;;4962809;29;20598;-82
2021/03/08 12:55:42;;;;;;;12.67;9.80;;;6.70;99.90;;;;;;4962906;28;20431;-81
2021/03/08 12:58:08;;;;;;;12.00;8.70;;;6.60;99.90;;;;;;4963246;28;20434;-82
2021/03/08 13:00:35;;;;;;;15.17;9.37;;;6.80;99.90;;;;;;4962968;28;20195;-81
2021/03/08 13:03:01;;;;;;;14.83;9.03;;;7.20;99.90;;;;;;4960615;28;20473;-78
2021/03/08 13:05:28;;;;;;;13.50;9.30;;;7.30;99.90;;;;;;4971245;28;20458;-80
2021/03/08 13:07:53;;;;;;;15.37;9.07;;;7.50;99.90;;;;;;4970395;29;20438;-78